createdAt,value
2023-03-04T00:03:13.821Z,28.17
2023-03-04T00:08:15.590Z,32.25
2023-03-04T00:13:18.787Z,30.52
2023-03-04T00:18:20.621Z,22.27
2023-03-04T00:23:22.504Z,23.33
2023-03-04T00:28:25.709Z,20.35
2023-03-04T00:33:27.430Z,23.27
2023-03-04T00:38:29.364Z,25.33
2023-03-04T00:43:32.454Z,23.70
2023-03-04T00:48:34.202Z,25.23
2023-03-04T00:53:36.009Z,24.70
2023-03-04T00:58:39.025Z,32.25
2023-03-04T01:03:40.694Z,32.75
2023-03-04T01:08:42.356Z,23.27
2023-03-04T01:13:45.490Z,27.40
2023-03-04T01:18:47.166Z,23.42
2023-03-04T01:23:49.046Z,26.70
2023-03-04T01:28:52.086Z,24.50
2023-03-04T01:33:53.771Z,21.80
2023-03-04T01:38:55.920Z,22.98
2023-03-04T01:44:00.823Z,20.48
2023-03-04T01:49:03.035Z,23.75
2023-03-04T01:54:04.825Z,27.27
2023-03-04T01:59:13.239Z,24.48
2023-03-04T02:04:17.193Z,24.92
2023-03-04T02:14:22.496Z,27.77
2023-03-04T02:19:42.141Z,30.57
2023-03-04T02:24:48.745Z,32.13
2023-03-04T02:29:51.735Z,29.67
2023-03-04T02:34:53.536Z,25.92
2023-03-04T02:39:55.206Z,41.10
2023-03-04T02:45:01.781Z,33.50
2023-03-04T02:50:04.088Z,30.52
2023-03-04T02:55:06.768Z,31.02
2023-03-04T03:00:11.748Z,34.83
2023-03-04T03:05:13.496Z,40.42
2023-03-04T03:10:15.236Z,41.15
2023-03-04T03:15:18.960Z,34.72
2023-03-04T03:20:20.722Z,34.75
2023-03-04T03:25:22.346Z,41.70
2023-03-04T03:30:25.408Z,41.22
2023-03-04T03:35:27.480Z,34.85
2023-03-04T03:40:29.199Z,34.58
2023-03-04T03:45:32.438Z,40.47
2023-03-04T03:50:34.183Z,46.97
2023-03-04T03:55:35.910Z,42.60
2023-03-04T04:00:38.961Z,48.20
2023-03-04T04:05:40.617Z,44.70
2023-03-04T04:10:43.112Z,48.55
2023-03-04T04:15:46.133Z,61.50
2023-03-04T04:20:47.804Z,71.68
2023-03-04T04:25:49.577Z,68.72
2023-03-04T04:30:52.610Z,69.25
2023-03-04T04:35:54.351Z,83.53
2023-03-04T04:40:56.868Z,69.37
2023-03-04T04:46:00.705Z,69.72
2023-03-04T04:51:02.351Z,74.10
2023-03-04T04:56:10.078Z,71.25
2023-03-04T05:01:13.933Z,60.47
2023-03-04T05:06:15.826Z,63.00
2023-03-04T05:11:18.302Z,70.37
2023-03-04T05:16:21.284Z,73.50
2023-03-04T05:21:22.967Z,87.28
2023-03-04T05:26:24.630Z,84.35
2023-03-04T05:31:27.617Z,89.25
2023-03-04T05:36:29.603Z,86.68
2023-03-04T05:41:31.464Z,81.78
2023-03-04T05:46:34.609Z,67.18
2023-03-04T05:51:36.299Z,83.62
2023-03-04T05:56:38.032Z,73.30
2023-03-04T06:01:41.265Z,79.00
2023-03-04T06:06:42.944Z,79.68
2023-03-04T06:11:44.594Z,85.45
2023-03-04T06:16:47.594Z,82.15
2023-03-04T06:21:49.225Z,89.28
2023-03-04T06:26:50.973Z,83.18
2023-03-04T06:31:54.100Z,80.38
2023-03-04T06:36:55.969Z,89.57
2023-03-04T06:42:03.796Z,91.03
2023-03-04T06:47:07.434Z,83.78
2023-03-04T06:52:09.102Z,94.97
2023-03-04T06:57:10.860Z,98.82
2023-03-04T07:02:16.649Z,82.05
2023-03-04T07:07:19.373Z,94.43
2023-03-04T07:12:21.137Z,94.32
2023-03-04T07:17:24.182Z,97.62
2023-03-04T07:22:25.984Z,86.32
2023-03-04T07:27:27.741Z,94.10
2023-03-04T07:32:30.977Z,89.78
2023-03-04T07:37:32.675Z,83.43
2023-03-04T07:42:37.143Z,100.50
2023-03-04T07:47:40.250Z,87.57
2023-03-04T07:52:43.254Z,89.37
2023-03-04T07:57:46.511Z,93.62
2023-03-04T08:02:49.781Z,88.65
2023-03-04T08:07:51.580Z,82.82
2023-03-04T08:12:53.348Z,100.60
2023-03-04T08:17:56.462Z,91.60
2023-03-04T08:22:58.237Z,87.15
2023-03-04T08:28:02.724Z,85.38
2023-03-04T08:33:06.134Z,83.35
2023-03-04T08:38:07.932Z,84.13
2023-03-04T08:43:09.757Z,79.00
2023-03-04T08:48:12.805Z,77.25
2023-03-04T08:53:15.728Z,84.82
2023-03-04T08:58:17.582Z,73.45
2023-03-04T09:03:21.746Z,70.78
2023-03-04T09:08:23.569Z,72.90
2023-03-04T09:13:26.476Z,73.80
2023-03-04T09:18:29.769Z,68.62
2023-03-04T09:23:31.542Z,72.05
2023-03-04T09:28:33.226Z,60.65
2023-03-04T09:33:36.261Z,56.75
2023-03-04T09:38:39.016Z,67.00
2023-03-04T09:43:43.072Z,59.28
2023-03-04T09:48:48.796Z,61.33
2023-03-04T09:54:05.544Z,55.92
2023-03-04T09:59:56.601Z,52.10
2023-03-04T10:05:03.473Z,48.33
2023-03-04T10:10:13.703Z,45.22
2023-03-04T10:15:24.100Z,41.22
2023-03-04T10:20:32.795Z,39.72
2023-03-04T10:25:36.419Z,49.17
2023-03-04T10:30:47.920Z,48.15
2023-03-04T10:35:55.922Z,46.37
2023-03-04T10:40:58.814Z,41.25
2023-03-04T10:46:00.605Z,32.00
2023-03-04T10:51:19.016Z,46.42
2023-03-04T10:56:35.773Z,36.83
2023-03-04T11:01:37.766Z,30.55
2023-03-04T11:06:41.723Z,34.80
2023-03-04T11:11:44.340Z,24.25
2023-03-04T11:16:54.258Z,27.77
2023-03-04T11:21:58.511Z,26.20
2023-03-04T11:27:05.736Z,32.13
2023-03-04T11:32:13.055Z,31.95
2023-03-04T11:37:22.810Z,24.75
2023-03-04T11:42:33.446Z,28.45
2023-03-04T11:48:00.350Z,20.92
2023-03-04T11:53:23.687Z,28.23
2023-03-04T11:58:54.633Z,23.48
2023-03-04T12:04:17.627Z,18.85
2023-03-04T12:20:35.481Z,26.37
2023-03-04T12:25:43.102Z,20.70
2023-03-04T12:30:56.061Z,23.35
2023-03-04T12:36:10.595Z,18.33
2023-03-04T12:41:25.866Z,18.80
2023-03-04T12:51:42.656Z,18.83
2023-03-04T12:56:50.247Z,21.92
2023-03-04T13:02:04.368Z,29.50
2023-03-04T13:07:17.198Z,24.12
2023-03-04T13:12:22.347Z,20.05
2023-03-04T13:17:43.916Z,16.33
2023-03-04T13:22:54.663Z,20.58
2023-03-04T13:28:28.064Z,17.08
2023-03-04T13:33:52.734Z,25.45
2023-03-04T13:39:01.519Z,15.60
2023-03-04T13:44:22.102Z,17.62
2023-03-04T13:49:24.473Z,18.25
2023-03-04T13:54:32.988Z,16.77
2023-03-04T13:59:41.295Z,20.52
2023-03-04T14:04:44.755Z,24.55
2023-03-04T14:10:28.247Z,17.35
2023-03-04T14:15:35.120Z,18.08
2023-03-04T14:20:52.810Z,21.80
2023-03-04T14:26:19.335Z,18.98
2023-03-04T14:36:58.373Z,21.80
2023-03-04T14:42:04.646Z,22.73
2023-03-04T14:47:13.849Z,18.27
2023-03-04T14:52:33.553Z,22.40
2023-03-04T14:57:35.787Z,18.55
2023-03-04T15:02:39.570Z,18.83
2023-03-04T15:07:58.431Z,20.10
2023-03-04T15:13:02.410Z,19.27
2023-03-04T15:18:25.151Z,18.10
2023-03-04T15:28:41.213Z,25.35
2023-03-04T15:33:44.584Z,20.33
2023-03-04T15:38:48.319Z,20.75
2023-03-04T15:43:50.275Z,22.02
2023-03-04T15:48:53.470Z,22.23
2023-03-04T15:53:56.773Z,29.63
2023-03-04T15:59:01.219Z,23.67
2023-03-04T16:04:04.570Z,23.20
2023-03-04T16:09:10.493Z,23.73
2023-03-04T16:14:12.963Z,25.10
2023-03-04T16:19:16.360Z,27.67
2023-03-04T16:24:19.659Z,25.15
2023-03-04T16:29:21.395Z,24.58
2023-03-04T16:34:30.427Z,23.45
2023-03-04T16:39:38.578Z,27.67
2023-03-04T16:44:40.439Z,26.60
2023-03-04T16:49:43.703Z,24.90
2023-03-04T16:54:46.211Z,23.15
2023-03-04T16:59:48.041Z,27.10
2023-03-04T17:04:51.106Z,21.92
2023-03-04T17:09:55.894Z,24.05
2023-03-04T17:14:57.842Z,22.62
2023-03-04T17:20:03.918Z,25.85
2023-03-04T17:25:12.865Z,22.13
2023-03-04T17:30:15.165Z,24.45
2023-03-04T17:35:20.522Z,24.87
2023-03-04T17:40:22.324Z,27.58
2023-03-04T17:45:24.375Z,32.53
2023-03-04T17:50:30.925Z,23.05
2023-03-04T17:55:36.167Z,31.55
2023-03-04T18:00:39.719Z,28.98
2023-03-04T18:05:52.716Z,26.42
2023-03-04T18:10:54.595Z,24.05
2023-03-04T18:16:01.971Z,27.13
2023-03-04T18:21:06.017Z,22.35
2023-03-04T18:26:07.820Z,33.92
2023-03-04T18:31:10.025Z,25.70
2023-03-04T18:36:13.668Z,46.05
2023-03-04T18:41:16.070Z,22.02
2023-03-04T18:46:31.530Z,22.10
2023-03-04T18:51:34.855Z,26.23
2023-03-04T18:56:39.927Z,24.05
2023-03-04T19:01:41.982Z,28.50
2023-03-04T19:06:47.457Z,24.60
2023-03-04T19:11:49.184Z,29.00
2023-03-04T19:16:51.060Z,33.35
2023-03-04T19:21:54.229Z,24.90
2023-03-04T19:26:55.976Z,30.62
2023-03-04T19:31:57.783Z,27.17
2023-03-04T19:37:00.895Z,28.15
2023-03-04T19:42:02.625Z,24.08
2023-03-04T19:47:04.768Z,26.83
2023-03-04T19:52:07.903Z,23.70
2023-03-04T19:57:09.586Z,28.05
2023-03-04T20:02:11.294Z,27.30
2023-03-04T20:07:14.370Z,29.85
2023-03-04T20:12:16.056Z,25.88
2023-03-04T20:17:17.816Z,25.60
2023-03-04T20:22:20.916Z,27.40
2023-03-04T20:27:22.627Z,27.73
2023-03-04T20:32:24.325Z,26.75
2023-03-04T20:37:27.359Z,23.67
2023-03-04T20:42:29.092Z,21.45
2023-03-04T20:47:31.117Z,22.98
2023-03-04T20:52:34.534Z,24.80
2023-03-04T20:57:36.293Z,24.25
2023-03-04T21:02:38.123Z,25.92
2023-03-04T21:07:41.219Z,25.33
2023-03-04T21:12:42.944Z,27.55
2023-03-04T21:17:44.649Z,28.70
2023-03-04T21:22:47.690Z,22.98
2023-03-04T21:27:49.461Z,25.33
2023-03-04T21:32:51.388Z,27.45
2023-03-04T21:37:54.449Z,26.42
2023-03-04T21:42:56.181Z,24.08
2023-03-04T21:47:57.931Z,30.27
2023-03-04T21:53:01.017Z,22.33
2023-03-04T21:58:02.716Z,23.67
2023-03-04T22:03:04.374Z,22.15
2023-03-04T22:08:07.517Z,23.67
2023-03-04T22:13:10.474Z,26.98
2023-03-04T22:18:13.798Z,25.42
2023-03-04T22:23:16.940Z,25.10
2023-03-04T22:28:18.649Z,26.48
2023-03-04T22:33:20.298Z,26.67
2023-03-04T22:38:23.380Z,26.15
2023-03-04T22:43:25.050Z,31.80
2023-03-04T22:48:26.775Z,23.50
2023-03-04T22:53:29.885Z,27.70
2023-03-04T22:58:31.670Z,25.33
2023-03-04T23:03:36.461Z,29.75
2023-03-04T23:08:41.391Z,28.02
2023-03-04T23:13:43.827Z,27.08
2023-03-04T23:18:46.971Z,30.40
2023-03-04T23:23:50.997Z,30.67
2023-03-04T23:28:55.511Z,29.87
2023-03-04T23:33:58.041Z,29.95
2023-03-04T23:39:02.083Z,27.87
2023-03-04T23:44:04.439Z,25.60
2023-03-04T23:49:07.131Z,27.55
2023-03-04T23:54:11.237Z,32.78
2023-03-04T23:59:13.097Z,31.67
